sensor_id;sensor_type;location;lat;lon;timestamp;P1;durP1;ratioP1;P2;durP2;ratioP2
13660;SDS011;6903;49.480;11.102;2023-05-10T00:01:49;6.73;;;5.50;;
13660;SDS011;6903;49.480;11.102;2023-05-10T00:04:15;6.77;;;5.10;;
13660;SDS011;6903;49.480;11.102;2023-05-10T00:06:40;5.93;;;5.27;;
13660;SDS011;6903;49.480;11.102;2023-05-10T00:09:06;6.10;;;5.50;;
13660;SDS011;6903;49.480;11.102;2023-05-10T00:11:31;6.37;;;5.40;;
13660;SDS011;6903;49.480;11.102;2023-05-10T00:13:56;6.70;;;5.90;;
13660;SDS011;6903;49.480;11.102;2023-05-10T00:16:22;7.47;;;6.60;;
13660;SDS011;6903;49.480;11.102;2023-05-10T00:18:47;6.73;;;6.03;;
13660;SDS011;6903;49.480;11.102;2023-05-10T00:21:12;7.90;;;7.10;;
13660;SDS011;6903;49.480;11.102;2023-05-10T00:23:38;7.90;;;7.10;;
13660;SDS011;6903;49.480;11.102;2023-05-10T00:26:03;9.17;;;7.43;;
13660;SDS011;6903;49.480;11.102;2023-05-10T00:28:28;9.00;;;7.00;;
13660;SDS011;6903;49.480;11.102;2023-05-10T00:30:54;8.53;;;7.60;;
13660;SDS011;6903;49.480;11.102;2023-05-10T00:33:20;9.23;;;8.07;;
13660;SDS011;6903;49.480;11.102;2023-05-10T00:35:46;8.30;;;7.50;;
13660;SDS011;6903;49.480;11.102;2023-05-10T00:38:11;10.37;;;8.20;;
13660;SDS011;6903;49.480;11.102;2023-05-10T00:40:36;9.77;;;8.37;;
13660;SDS011;6903;49.480;11.102;2023-05-10T00:43:02;10.00;;;8.83;;
13660;SDS011;6903;49.480;11.102;2023-05-10T00:45:28;10.03;;;8.30;;
13660;SDS011;6903;49.480;11.102;2023-05-10T00:47:54;11.23;;;9.80;;
13660;SDS011;6903;49.480;11.102;2023-05-10T00:50:21;10.93;;;9.57;;
13660;SDS011;6903;49.480;11.102;2023-05-10T00:52:47;11.07;;;9.30;;
13660;SDS011;6903;49.480;11.102;2023-05-10T00:55:13;11.30;;;9.60;;
13660;SDS011;6903;49.480;11.102;2023-05-10T00:57:38;12.47;;;10.60;;
13660;SDS011;6903;49.480;11.102;2023-05-10T01:00:04;12.90;;;10.67;;
13660;SDS011;6903;49.480;11.102;2023-05-10T01:02:30;11.90;;;10.23;;
13660;SDS011;6903;49.480;11.102;2023-05-10T01:04:55;12.23;;;10.87;;
13660;SDS011;6903;49.480;11.102;2023-05-10T01:07:21;13.57;;;11.10;;
13660;SDS011;6903;49.480;11.102;2023-05-10T01:09:46;12.33;;;10.83;;
13660;SDS011;6903;49.480;11.102;2023-05-10T01:12:11;13.17;;;10.90;;
13660;SDS011;6903;49.480;11.102;2023-05-10T01:14:37;13.30;;;11.90;;
13660;SDS011;6903;49.480;11.102;2023-05-10T01:17:03;14.10;;;12.23;;
13660;SDS011;6903;49.480;11.102;2023-05-10T01:19:31;13.67;;;12.27;;
13660;SDS011;6903;49.480;11.102;2023-05-10T01:34:01;13.77;;;11.50;;
13660;SDS011;6903;49.480;11.102;2023-05-10T01:39:17;15.90;;;13.00;;
13660;SDS011;6903;49.480;11.102;2023-05-10T01:41:51;17.07;;;12.90;;
13660;SDS011;6903;49.480;11.102;2023-05-10T01:44:29;15.30;;;13.07;;
13660;SDS011;6903;49.480;11.102;2023-05-10T01:47:46;17.10;;;13.53;;
13660;SDS011;6903;49.480;11.102;2023-05-10T01:49:55;18.03;;;13.73;;
13660;SDS011;6903;49.480;11.102;2023-05-10T01:52:26;16.07;;;14.17;;
13660;SDS011;6903;49.480;11.102;2023-05-10T01:55:01;16.30;;;13.50;;
13660;SDS011;6903;49.480;11.102;2023-05-10T01:57:32;16.53;;;14.47;;
13660;SDS011;6903;49.480;11.102;2023-05-10T01:59:59;17.43;;;14.40;;
13660;SDS011;6903;49.480;11.102;2023-05-10T02:02:28;17.17;;;14.53;;
13660;SDS011;6903;49.480;11.102;2023-05-10T02:04:58;17.00;;;14.43;;
13660;SDS011;6903;49.480;11.102;2023-05-10T02:07:24;17.40;;;14.53;;
13660;SDS011;6903;49.480;11.102;2023-05-10T02:09:51;19.53;;;15.33;;
13660;SDS011;6903;49.480;11.102;2023-05-10T02:12:16;17.80;;;14.90;;
13660;SDS011;6903;49.480;11.102;2023-05-10T02:14:43;17.60;;;14.90;;
13660;SDS011;6903;49.480;11.102;2023-05-10T02:17:10;19.07;;;14.77;;
13660;SDS011;6903;49.480;11.102;2023-05-10T02:19:38;17.10;;;13.83;;
13660;SDS011;6903;49.480;11.102;2023-05-10T02:22:06;19.77;;;15.43;;
13660;SDS011;6903;49.480;11.102;2023-05-10T02:24:33;20.27;;;14.93;;
13660;SDS011;6903;49.480;11.102;2023-05-10T02:27:01;19.07;;;15.37;;
13660;SDS011;6903;49.480;11.102;2023-05-10T02:29:28;19.57;;;15.50;;
13660;SDS011;6903;49.480;11.102;2023-05-10T02:31:55;19.93;;;15.90;;
13660;SDS011;6903;49.480;11.102;2023-05-10T02:34:22;20.77;;;16.13;;
13660;SDS011;6903;49.480;11.102;2023-05-10T02:36:50;21.43;;;16.37;;
13660;SDS011;6903;49.480;11.102;2023-05-10T02:39:17;20.93;;;16.07;;
13660;SDS011;6903;49.480;11.102;2023-05-10T02:41:45;16.87;;;14.57;;
13660;SDS011;6903;49.480;11.102;2023-05-10T02:44:13;17.60;;;14.97;;
13660;SDS011;6903;49.480;11.102;2023-05-10T02:46:40;16.90;;;13.97;;
13660;SDS011;6903;49.480;11.102;2023-05-10T02:49:05;15.23;;;12.17;;
13660;SDS011;6903;49.480;11.102;2023-05-10T02:51:32;10.20;;;9.00;;
13660;SDS011;6903;49.480;11.102;2023-05-10T02:54:10;8.90;;;7.50;;
13660;SDS011;6903;49.480;11.102;2023-05-10T02:56:42;6.40;;;5.73;;
13660;SDS011;6903;49.480;11.102;2023-05-10T02:59:15;8.57;;;6.80;;
13660;SDS011;6903;49.480;11.102;2023-05-10T03:01:41;9.27;;;6.57;;
13660;SDS011;6903;49.480;11.102;2023-05-10T03:04:06;8.00;;;6.80;;
13660;SDS011;6903;49.480;11.102;2023-05-10T03:06:32;7.17;;;6.47;;
13660;SDS011;6903;49.480;11.102;2023-05-10T03:08:57;5.80;;;5.20;;
13660;SDS011;6903;49.480;11.102;2023-05-10T03:11:37;7.47;;;5.50;;
13660;SDS011;6903;49.480;11.102;2023-05-10T03:17:18;2.97;;;2.60;;
13660;SDS011;6903;49.480;11.102;2023-05-10T03:22:34;3.40;;;2.43;;
13660;SDS011;6903;49.480;11.102;2023-05-10T03:25:06;2.30;;;2.10;;
13660;SDS011;6903;49.480;11.102;2023-05-10T03:27:35;2.60;;;2.40;;
13660;SDS011;6903;49.480;11.102;2023-05-10T03:30:04;2.80;;;2.60;;
13660;SDS011;6903;49.480;11.102;2023-05-10T03:32:31;3.10;;;2.80;;
13660;SDS011;6903;49.480;11.102;2023-05-10T03:34:59;3.27;;;2.97;;
13660;SDS011;6903;49.480;11.102;2023-05-10T03:37:24;3.67;;;3.20;;
13660;SDS011;6903;49.480;11.102;2023-05-10T03:39:49;2.63;;;2.43;;
13660;SDS011;6903;49.480;11.102;2023-05-10T03:42:15;2.67;;;2.37;;
13660;SDS011;6903;49.480;11.102;2023-05-10T03:44:42;3.67;;;2.30;;
13660;SDS011;6903;49.480;11.102;2023-05-10T03:47:08;2.17;;;1.80;;
13660;SDS011;6903;49.480;11.102;2023-05-10T03:49:33;2.27;;;2.07;;
13660;SDS011;6903;49.480;11.102;2023-05-10T03:51:58;2.13;;;1.77;;
13660;SDS011;6903;49.480;11.102;2023-05-10T03:54:24;2.60;;;1.93;;
13660;SDS011;6903;49.480;11.102;2023-05-10T03:56:49;2.20;;;1.97;;
13660;SDS011;6903;49.480;11.102;2023-05-10T03:59:14;2.20;;;1.90;;
13660;SDS011;6903;49.480;11.102;2023-05-10T04:01:40;2.27;;;1.80;;
13660;SDS011;6903;49.480;11.102;2023-05-10T04:04:05;1.80;;;1.70;;
13660;SDS011;6903;49.480;11.102;2023-05-10T04:06:30;1.53;;;1.43;;
13660;SDS011;6903;49.480;11.102;2023-05-10T04:08:56;2.47;;;1.50;;
13660;SDS011;6903;49.480;11.102;2023-05-10T04:11:24;1.77;;;1.50;;
13660;SDS011;6903;49.480;11.102;2023-05-10T04:13:50;1.67;;;1.50;;
13660;SDS011;6903;49.480;11.102;2023-05-10T04:16:15;2.50;;;1.73;;
13660;SDS011;6903;49.480;11.102;2023-05-10T04:18:40;2.13;;;1.30;;
13660;SDS011;6903;49.480;11.102;2023-05-10T04:21:11;1.80;;;1.30;;
13660;SDS011;6903;49.480;11.102;2023-05-10T04:23:39;1.20;;;1.10;;
13660;SDS011;6903;49.480;11.102;2023-05-10T04:26:05;1.73;;;1.43;;
13660;SDS011;6903;49.480;11.102;2023-05-10T04:28:30;2.00;;;1.30;;
13660;SDS011;6903;49.480;11.102;2023-05-10T04:31:05;1.43;;;1.30;;
13660;SDS011;6903;49.480;11.102;2023-05-10T04:33:32;2.07;;;1.50;;
13660;SDS011;6903;49.480;11.102;2023-05-10T04:35:58;1.50;;;1.37;;
13660;SDS011;6903;49.480;11.102;2023-05-10T04:38:23;1.50;;;1.40;;
13660;SDS011;6903;49.480;11.102;2023-05-10T04:40:49;1.50;;;1.40;;
13660;SDS011;6903;49.480;11.102;2023-05-10T04:43:15;1.50;;;1.40;;
13660;SDS011;6903;49.480;11.102;2023-05-10T04:45:40;1.53;;;1.40;;
13660;SDS011;6903;49.480;11.102;2023-05-10T04:48:05;2.17;;;1.40;;
13660;SDS011;6903;49.480;11.102;2023-05-10T04:50:30;1.50;;;1.40;;
13660;SDS011;6903;49.480;11.102;2023-05-10T04:52:56;1.50;;;1.40;;
13660;SDS011;6903;49.480;11.102;2023-05-10T04:55:22;1.90;;;1.33;;
13660;SDS011;6903;49.480;11.102;2023-05-10T04:57:47;1.93;;;1.53;;
13660;SDS011;6903;49.480;11.102;2023-05-10T05:00:12;1.67;;;1.40;;
13660;SDS011;6903;49.480;11.102;2023-05-10T05:02:38;1.50;;;1.40;;
13660;SDS011;6903;49.480;11.102;2023-05-10T05:05:07;1.70;;;1.60;;
13660;SDS011;6903;49.480;11.102;2023-05-10T05:07:33;2.20;;;1.50;;
13660;SDS011;6903;49.480;11.102;2023-05-10T05:09:58;2.53;;;1.57;;
13660;SDS011;6903;49.480;11.102;2023-05-10T05:12:23;2.30;;;1.40;;
13660;SDS011;6903;49.480;11.102;2023-05-10T05:14:49;1.50;;;1.37;;
13660;SDS011;6903;49.480;11.102;2023-05-10T05:17:14;1.77;;;1.30;;
13660;SDS011;6903;49.480;11.102;2023-05-10T05:19:40;1.17;;;1.07;;
13660;SDS011;6903;49.480;11.102;2023-05-10T05:22:06;1.77;;;1.30;;
13660;SDS011;6903;49.480;11.102;2023-05-10T05:24:35;1.47;;;1.37;;
13660;SDS011;6903;49.480;11.102;2023-05-10T05:27:03;1.20;;;1.10;;
13660;SDS011;6903;49.480;11.102;2023-05-10T05:29:29;1.17;;;1.07;;
13660;SDS011;6903;49.480;11.102;2023-05-10T05:31:54;1.17;;;1.07;;
13660;SDS011;6903;49.480;11.102;2023-05-10T05:34:20;1.10;;;1.00;;
13660;SDS011;6903;49.480;11.102;2023-05-10T05:36:46;1.40;;;1.23;;
13660;SDS011;6903;49.480;11.102;2023-05-10T05:39:11;1.57;;;1.23;;
13660;SDS011;6903;49.480;11.102;2023-05-10T05:41:37;1.50;;;1.00;;
13660;SDS011;6903;49.480;11.102;2023-05-10T05:44:02;1.30;;;1.20;;
13660;SDS011;6903;49.480;11.102;2023-05-10T05:46:27;1.17;;;1.07;;
13660;SDS011;6903;49.480;11.102;2023-05-10T05:48:53;1.57;;;1.23;;
13660;SDS011;6903;49.480;11.102;2023-05-10T05:51:18;1.90;;;1.47;;
13660;SDS011;6903;49.480;11.102;2023-05-10T05:53:43;1.10;;;1.00;;
13660;SDS011;6903;49.480;11.102;2023-05-10T05:56:08;2.27;;;2.07;;
13660;SDS011;6903;49.480;11.102;2023-05-10T05:58:34;1.40;;;1.30;;
13660;SDS011;6903;49.480;11.102;2023-05-10T06:00:59;1.50;;;1.40;;
13660;SDS011;6903;49.480;11.102;2023-05-10T06:03:25;1.30;;;1.20;;
13660;SDS011;6903;49.480;11.102;2023-05-10T06:05:50;1.50;;;1.40;;
13660;SDS011;6903;49.480;11.102;2023-05-10T06:08:15;1.60;;;1.30;;
13660;SDS011;6903;49.480;11.102;2023-05-10T06:10:41;1.20;;;1.10;;
13660;SDS011;6903;49.480;11.102;2023-05-10T06:13:06;2.53;;;1.90;;
13660;SDS011;6903;49.480;11.102;2023-05-10T06:15:31;1.57;;;1.47;;
13660;SDS011;6903;49.480;11.102;2023-05-10T06:17:57;1.40;;;1.30;;
13660;SDS011;6903;49.480;11.102;2023-05-10T06:20:23;1.50;;;1.40;;
13660;SDS011;6903;49.480;11.102;2023-05-10T06:22:48;1.60;;;1.23;;
13660;SDS011;6903;49.480;11.102;2023-05-10T06:25:13;1.50;;;1.40;;
13660;SDS011;6903;49.480;11.102;2023-05-10T06:27:39;1.60;;;1.40;;
13660;SDS011;6903;49.480;11.102;2023-05-10T06:30:05;1.43;;;1.30;;
13660;SDS011;6903;49.480;11.102;2023-05-10T06:32:31;1.40;;;1.23;;
13660;SDS011;6903;49.480;11.102;2023-05-10T06:34:57;1.47;;;1.30;;
13660;SDS011;6903;49.480;11.102;2023-05-10T06:37:23;1.50;;;1.40;;
13660;SDS011;6903;49.480;11.102;2023-05-10T06:39:48;1.30;;;1.20;;
13660;SDS011;6903;49.480;11.102;2023-05-10T06:42:13;1.30;;;1.20;;
13660;SDS011;6903;49.480;11.102;2023-05-10T06:44:39;1.40;;;1.30;;
13660;SDS011;6903;49.480;11.102;2023-05-10T06:47:04;1.53;;;1.20;;
13660;SDS011;6903;49.480;11.102;2023-05-10T06:49:29;1.57;;;1.27;;
13660;SDS011;6903;49.480;11.102;2023-05-10T06:51:55;1.83;;;1.40;;
13660;SDS011;6903;49.480;11.102;2023-05-10T06:54:21;1.23;;;1.13;;
13660;SDS011;6903;49.480;11.102;2023-05-10T06:56:46;1.67;;;1.30;;
13660;SDS011;6903;49.480;11.102;2023-05-10T06:59:11;1.77;;;1.38;;
13660;SDS011;6903;49.480;11.102;2023-05-10T07:01:38;1.50;;;1.40;;
13660;SDS011;6903;49.480;11.102;2023-05-10T07:04:03;1.87;;;1.37;;
13660;SDS011;6903;49.480;11.102;2023-05-10T07:06:29;1.63;;;1.35;;
13660;SDS011;6903;49.480;11.102;2023-05-10T07:08:54;1.20;;;1.10;;
13660;SDS011;6903;49.480;11.102;2023-05-10T07:11:19;1.20;;;1.10;;
13660;SDS011;6903;49.480;11.102;2023-05-10T07:13:45;1.63;;;1.23;;
13660;SDS011;6903;49.480;11.102;2023-05-10T07:16:11;2.03;;;1.10;;
13660;SDS011;6903;49.480;11.102;2023-05-10T07:18:37;1.80;;;1.05;;
13660;SDS011;6903;49.480;11.102;2023-05-10T07:21:02;1.13;;;1.02;;
13660;SDS011;6903;49.480;11.102;2023-05-10T07:23:28;2.83;;;1.38;;
13660;SDS011;6903;49.480;11.102;2023-05-10T07:25:53;1.05;;;0.95;;
13660;SDS011;6903;49.480;11.102;2023-05-10T07:28:18;2.65;;;1.20;;
13660;SDS011;6903;49.480;11.102;2023-05-10T07:30:44;0.95;;;0.95;;
13660;SDS011;6903;49.480;11.102;2023-05-10T07:33:09;1.52;;;1.02;;
13660;SDS011;6903;49.480;11.102;2023-05-10T07:35:36;0.85;;;0.85;;
13660;SDS011;6903;49.480;11.102;2023-05-10T07:38:02;1.10;;;1.00;;
13660;SDS011;6903;49.480;11.102;2023-05-10T07:40:27;1.00;;;0.90;;
13660;SDS011;6903;49.480;11.102;2023-05-10T07:42:53;1.42;;;0.90;;
13660;SDS011;6903;49.480;11.102;2023-05-10T07:45:18;1.10;;;1.00;;
13660;SDS011;6903;49.480;11.102;2023-05-10T07:47:44;1.15;;;1.02;;
13660;SDS011;6903;49.480;11.102;2023-05-10T07:50:09;1.10;;;1.00;;
13660;SDS011;6903;49.480;11.102;2023-05-10T07:52:35;1.45;;;1.00;;
13660;SDS011;6903;49.480;11.102;2023-05-10T07:55:00;1.10;;;1.00;;
13660;SDS011;6903;49.480;11.102;2023-05-10T07:57:25;1.65;;;1.05;;
13660;SDS011;6903;49.480;11.102;2023-05-10T07:59:51;2.45;;;1.10;;
13660;SDS011;6903;49.480;11.102;2023-05-10T08:02:16;1.02;;;0.90;;
13660;SDS011;6903;49.480;11.102;2023-05-10T08:04:41;2.47;;;1.30;;
13660;SDS011;6903;49.480;11.102;2023-05-10T08:07:07;1.98;;;1.13;;
13660;SDS011;6903;49.480;11.102;2023-05-10T08:09:32;1.45;;;1.10;;
13660;SDS011;6903;49.480;11.102;2023-05-10T08:11:58;1.67;;;1.05;;
13660;SDS011;6903;49.480;11.102;2023-05-10T08:14:24;2.55;;;1.10;;
13660;SDS011;6903;49.480;11.102;2023-05-10T08:16:50;1.55;;;1.20;;
13660;SDS011;6903;49.480;11.102;2023-05-10T08:19:15;2.35;;;1.40;;
13660;SDS011;6903;49.480;11.102;2023-05-10T08:21:44;1.95;;;1.30;;
13660;SDS011;6903;49.480;11.102;2023-05-10T08:24:09;1.65;;;1.42;;
13660;SDS011;6903;49.480;11.102;2023-05-10T08:26:35;1.48;;;1.30;;
13660;SDS011;6903;49.480;11.102;2023-05-10T08:29:00;1.67;;;1.40;;
13660;SDS011;6903;49.480;11.102;2023-05-10T08:31:25;1.73;;;1.20;;
13660;SDS011;6903;49.480;11.102;2023-05-10T08:33:51;1.30;;;1.20;;
13660;SDS011;6903;49.480;11.102;2023-05-10T08:36:17;2.60;;;1.40;;
13660;SDS011;6903;49.480;11.102;2023-05-10T08:38:46;1.35;;;1.25;;
13660;SDS011;6903;49.480;11.102;2023-05-10T08:41:12;1.60;;;1.17;;
13660;SDS011;6903;49.480;11.102;2023-05-10T08:43:38;1.60;;;1.40;;
13660;SDS011;6903;49.480;11.102;2023-05-10T08:46:04;1.77;;;1.40;;
13660;SDS011;6903;49.480;11.102;2023-05-10T08:48:30;1.95;;;1.20;;
13660;SDS011;6903;49.480;11.102;2023-05-10T08:50:58;2.70;;;2.22;;
13660;SDS011;6903;49.480;11.102;2023-05-10T08:53:25;1.35;;;1.25;;
13660;SDS011;6903;49.480;11.102;2023-05-10T08:55:52;1.50;;;1.20;;
13660;SDS011;6903;49.480;11.102;2023-05-10T08:58:18;2.05;;;1.20;;
13660;SDS011;6903;49.480;11.102;2023-05-10T09:00:44;2.15;;;1.10;;
13660;SDS011;6903;49.480;11.102;2023-05-10T09:03:10;3.40;;;1.23;;
13660;SDS011;6903;49.480;11.102;2023-05-10T09:05:36;4.15;;;1.30;;
13660;SDS011;6903;49.480;11.102;2023-05-10T09:08:01;9.57;;;2.38;;
13660;SDS011;6903;49.480;11.102;2023-05-10T09:10:27;2.75;;;1.30;;
13660;SDS011;6903;49.480;11.102;2023-05-10T09:12:56;3.53;;;1.65;;
13660;SDS011;6903;49.480;11.102;2023-05-10T09:15:22;1.45;;;1.35;;
13660;SDS011;6903;49.480;11.102;2023-05-10T09:17:47;2.90;;;1.17;;
13660;SDS011;6903;49.480;11.102;2023-05-10T09:20:14;2.10;;;1.13;;
13660;SDS011;6903;49.480;11.102;2023-05-10T09:22:40;2.78;;;1.73;;
13660;SDS011;6903;49.480;11.102;2023-05-10T09:27:32;3.95;;;1.95;;
13660;SDS011;6903;49.480;11.102;2023-05-10T09:29:58;3.28;;;1.90;;
13660;SDS011;6903;49.480;11.102;2023-05-10T09:32:36;1.85;;;1.65;;
13660;SDS011;6903;49.480;11.102;2023-05-10T09:35:09;1.85;;;1.73;;
13660;SDS011;6903;49.480;11.102;2023-05-10T09:37:40;2.38;;;2.17;;
13660;SDS011;6903;49.480;11.102;2023-05-10T09:40:07;4.03;;;2.67;;
13660;SDS011;6903;49.480;11.102;2023-05-10T09:42:36;3.00;;;2.80;;
13660;SDS011;6903;49.480;11.102;2023-05-10T09:45:04;4.38;;;2.70;;
13660;SDS011;6903;49.480;11.102;2023-05-10T09:47:32;4.82;;;3.20;;
13660;SDS011;6903;49.480;11.102;2023-05-10T09:49:58;3.55;;;3.05;;
13660;SDS011;6903;49.480;11.102;2023-05-10T09:52:28;4.47;;;3.03;;
13660;SDS011;6903;49.480;11.102;2023-05-10T09:55:10;5.30;;;3.58;;
13660;SDS011;6903;49.480;11.102;2023-05-10T09:57:35;6.53;;;3.53;;
13660;SDS011;6903;49.480;11.102;2023-05-10T10:00:00;3.60;;;3.13;;
13660;SDS011;6903;49.480;11.102;2023-05-10T10:02:28;4.80;;;3.25;;
13660;SDS011;6903;49.480;11.102;2023-05-10T10:04:54;5.03;;;3.50;;
13660;SDS011;6903;49.480;11.102;2023-05-10T10:07:22;4.28;;;3.70;;
13660;SDS011;6903;49.480;11.102;2023-05-10T10:09:49;2.80;;;2.50;;
13660;SDS011;6903;49.480;11.102;2023-05-10T10:12:14;2.75;;;2.15;;
13660;SDS011;6903;49.480;11.102;2023-05-10T10:14:40;2.50;;;2.28;;
13660;SDS011;6903;49.480;11.102;2023-05-10T10:17:06;2.90;;;2.38;;
13660;SDS011;6903;49.480;11.102;2023-05-10T10:19:33;5.00;;;2.20;;
13660;SDS011;6903;49.480;11.102;2023-05-10T10:21:59;2.55;;;1.63;;
13660;SDS011;6903;49.480;11.102;2023-05-10T10:24:25;3.40;;;2.03;;
13660;SDS011;6903;49.480;11.102;2023-05-10T10:26:51;2.33;;;1.40;;
13660;SDS011;6903;49.480;11.102;2023-05-10T10:32:03;1.20;;;1.10;;
13660;SDS011;6903;49.480;11.102;2023-05-10T10:34:45;1.45;;;1.13;;
13660;SDS011;6903;49.480;11.102;2023-05-10T10:37:11;2.45;;;1.08;;
13660;SDS011;6903;49.480;11.102;2023-05-10T10:39:36;1.10;;;1.00;;
13660;SDS011;6903;49.480;11.102;2023-05-10T10:42:02;1.27;;;1.13;;
13660;SDS011;6903;49.480;11.102;2023-05-10T10:46:58;2.00;;;1.05;;
13660;SDS011;6903;49.480;11.102;2023-05-10T10:49:24;1.50;;;1.10;;
13660;SDS011;6903;49.480;11.102;2023-05-10T10:52:33;4.13;;;2.83;;
13660;SDS011;6903;49.480;11.102;2023-05-10T11:00:18;2.60;;;1.67;;
13660;SDS011;6903;49.480;11.102;2023-05-10T11:08:07;1.73;;;1.20;;
13660;SDS011;6903;49.480;11.102;2023-05-10T11:10:36;1.85;;;1.40;;
13660;SDS011;6903;49.480;11.102;2023-05-10T11:13:03;2.22;;;1.33;;
13660;SDS011;6903;49.480;11.102;2023-05-10T11:15:32;1.60;;;1.20;;
13660;SDS011;6903;49.480;11.102;2023-05-10T11:17:59;1.55;;;1.20;;
13660;SDS011;6903;49.480;11.102;2023-05-10T11:20:28;2.35;;;1.27;;
13660;SDS011;6903;49.480;11.102;2023-05-10T11:23:13;1.63;;;1.52;;
13660;SDS011;6903;49.480;11.102;2023-05-10T11:25:44;3.28;;;1.50;;
13660;SDS011;6903;49.480;11.102;2023-05-10T11:28:13;2.25;;;1.58;;
13660;SDS011;6903;49.480;11.102;2023-05-10T11:30:40;2.95;;;1.65;;
13660;SDS011;6903;49.480;11.102;2023-05-10T11:33:07;2.25;;;1.83;;
13660;SDS011;6903;49.480;11.102;2023-05-10T11:35:39;2.58;;;1.80;;
13660;SDS011;6903;49.480;11.102;2023-05-10T11:38:09;1.67;;;1.55;;
13660;SDS011;6903;49.480;11.102;2023-05-10T11:40:36;2.17;;;1.80;;
13660;SDS011;6903;49.480;11.102;2023-05-10T11:43:02;1.90;;;1.70;;
13660;SDS011;6903;49.480;11.102;2023-05-10T11:45:28;1.40;;;1.30;;
13660;SDS011;6903;49.480;11.102;2023-05-10T11:47:55;2.65;;;1.40;;
13660;SDS011;6903;49.480;11.102;2023-05-10T11:50:21;1.70;;;1.15;;
13660;SDS011;6903;49.480;11.102;2023-05-10T11:52:51;2.65;;;1.25;;
13660;SDS011;6903;49.480;11.102;2023-05-10T11:55:17;1.33;;;1.23;;
13660;SDS011;6903;49.480;11.102;2023-05-10T11:57:42;1.45;;;1.20;;
13660;SDS011;6903;49.480;11.102;2023-05-10T12:00:10;1.30;;;1.20;;
13660;SDS011;6903;49.480;11.102;2023-05-10T12:02:35;2.28;;;1.60;;
13660;SDS011;6903;49.480;11.102;2023-05-10T12:05:01;1.88;;;1.30;;
13660;SDS011;6903;49.480;11.102;2023-05-10T12:07:28;1.27;;;1.17;;
13660;SDS011;6903;49.480;11.102;2023-05-10T12:12:51;2.00;;;1.77;;
13660;SDS011;6903;49.480;11.102;2023-05-10T12:15:21;2.67;;;1.75;;
13660;SDS011;6903;49.480;11.102;2023-05-10T12:17:48;1.50;;;1.40;;
13660;SDS011;6903;49.480;11.102;2023-05-10T12:20:14;2.60;;;1.80;;
13660;SDS011;6903;49.480;11.102;2023-05-10T12:22:50;2.75;;;1.80;;
13660;SDS011;6903;49.480;11.102;2023-05-10T12:25:17;2.00;;;1.80;;
13660;SDS011;6903;49.480;11.102;2023-05-10T12:27:53;2.28;;;1.50;;
13660;SDS011;6903;49.480;11.102;2023-05-10T12:30:30;3.25;;;1.48;;
13660;SDS011;6903;49.480;11.102;2023-05-10T12:33:00;1.75;;;1.23;;
13660;SDS011;6903;49.480;11.102;2023-05-10T12:35:29;4.28;;;1.30;;
13660;SDS011;6903;49.480;11.102;2023-05-10T12:37:55;1.23;;;1.13;;
13660;SDS011;6903;49.480;11.102;2023-05-10T12:40:20;2.13;;;1.20;;
13660;SDS011;6903;49.480;11.102;2023-05-10T12:42:46;1.50;;;1.40;;
13660;SDS011;6903;49.480;11.102;2023-05-10T12:45:11;1.20;;;1.10;;
13660;SDS011;6903;49.480;11.102;2023-05-10T12:47:37;1.27;;;1.10;;
13660;SDS011;6903;49.480;11.102;2023-05-10T12:50:03;4.22;;;1.45;;
13660;SDS011;6903;49.480;11.102;2023-05-10T12:52:29;0.90;;;0.90;;
13660;SDS011;6903;49.480;11.102;2023-05-10T12:54:56;2.67;;;1.25;;
13660;SDS011;6903;49.480;11.102;2023-05-10T12:57:22;2.45;;;1.10;;
13660;SDS011;6903;49.480;11.102;2023-05-10T12:59:48;1.92;;;1.20;;
13660;SDS011;6903;49.480;11.102;2023-05-10T13:02:13;1.48;;;1.05;;
13660;SDS011;6903;49.480;11.102;2023-05-10T13:04:39;2.35;;;1.02;;
13660;SDS011;6903;49.480;11.102;2023-05-10T13:07:08;2.08;;;1.13;;
13660;SDS011;6903;49.480;11.102;2023-05-10T13:09:34;2.53;;;1.25;;
13660;SDS011;6903;49.480;11.102;2023-05-10T13:11:59;1.25;;;1.00;;
13660;SDS011;6903;49.480;11.102;2023-05-10T13:14:25;1.33;;;1.02;;
13660;SDS011;6903;49.480;11.102;2023-05-10T13:16:50;2.60;;;1.30;;
13660;SDS011;6903;49.480;11.102;2023-05-10T13:19:16;1.23;;;1.10;;
13660;SDS011;6903;49.480;11.102;2023-05-10T13:21:42;1.60;;;1.23;;
13660;SDS011;6903;49.480;11.102;2023-05-10T13:24:09;1.60;;;1.10;;
13660;SDS011;6903;49.480;11.102;2023-05-10T13:26:35;1.20;;;1.10;;
13660;SDS011;6903;49.480;11.102;2023-05-10T13:29:01;0.70;;;0.60;;
13660;SDS011;6903;49.480;11.102;2023-05-10T13:31:27;1.13;;;0.80;;
13660;SDS011;6903;49.480;11.102;2023-05-10T13:33:52;0.80;;;0.80;;
13660;SDS011;6903;49.480;11.102;2023-05-10T13:36:18;1.58;;;0.90;;
13660;SDS011;6903;49.480;11.102;2023-05-10T13:38:43;0.80;;;0.80;;
13660;SDS011;6903;49.480;11.102;2023-05-10T13:41:08;1.67;;;1.33;;
13660;SDS011;6903;49.480;11.102;2023-05-10T13:43:34;3.63;;;2.45;;
13660;SDS011;6903;49.480;11.102;2023-05-10T13:46:00;2.17;;;1.90;;
13660;SDS011;6903;49.480;11.102;2023-05-10T13:48:25;3.17;;;2.72;;
13660;SDS011;6903;49.480;11.102;2023-05-10T13:50:50;2.30;;;1.63;;
13660;SDS011;6903;49.480;11.102;2023-05-10T13:53:16;1.88;;;1.65;;
13660;SDS011;6903;49.480;11.102;2023-05-10T13:55:41;1.90;;;1.70;;
13660;SDS011;6903;49.480;11.102;2023-05-10T13:58:06;2.45;;;1.90;;
13660;SDS011;6903;49.480;11.102;2023-05-10T14:00:32;5.25;;;2.50;;
13660;SDS011;6903;49.480;11.102;2023-05-10T14:02:57;2.50;;;2.30;;
13660;SDS011;6903;49.480;11.102;2023-05-10T14:05:22;2.47;;;2.00;;
13660;SDS011;6903;49.480;11.102;2023-05-10T14:07:48;3.05;;;2.20;;
13660;SDS011;6903;49.480;11.102;2023-05-10T14:10:15;2.75;;;2.05;;
13660;SDS011;6903;49.480;11.102;2023-05-10T14:12:40;5.32;;;2.20;;
13660;SDS011;6903;49.480;11.102;2023-05-10T14:15:06;2.00;;;1.73;;
13660;SDS011;6903;49.480;11.102;2023-05-10T14:17:31;2.28;;;2.08;;
13660;SDS011;6903;49.480;11.102;2023-05-10T14:19:57;2.30;;;2.10;;
13660;SDS011;6903;49.480;11.102;2023-05-10T14:22:22;2.00;;;1.90;;
13660;SDS011;6903;49.480;11.102;2023-05-10T14:24:48;3.33;;;2.00;;
13660;SDS011;6903;49.480;11.102;2023-05-10T14:27:13;2.80;;;1.85;;
13660;SDS011;6903;49.480;11.102;2023-05-10T14:29:39;1.98;;;1.77;;
13660;SDS011;6903;49.480;11.102;2023-05-10T14:32:04;2.47;;;1.83;;
13660;SDS011;6903;49.480;11.102;2023-05-10T14:34:29;2.05;;;1.80;;
13660;SDS011;6903;49.480;11.102;2023-05-10T14:36:55;3.67;;;1.65;;
13660;SDS011;6903;49.480;11.102;2023-05-10T14:39:20;2.55;;;2.05;;
13660;SDS011;6903;49.480;11.102;2023-05-10T14:41:46;2.20;;;1.73;;
13660;SDS011;6903;49.480;11.102;2023-05-10T14:44:12;1.90;;;1.80;;
13660;SDS011;6903;49.480;11.102;2023-05-10T14:46:37;2.20;;;1.70;;
13660;SDS011;6903;49.480;11.102;2023-05-10T14:49:03;3.25;;;1.73;;
13660;SDS011;6903;49.480;11.102;2023-05-10T14:51:28;2.33;;;2.05;;
13660;SDS011;6903;49.480;11.102;2023-05-10T14:53:54;3.67;;;2.03;;
13660;SDS011;6903;49.480;11.102;2023-05-10T14:56:19;1.85;;;1.70;;
13660;SDS011;6903;49.480;11.102;2023-05-10T14:58:45;1.65;;;1.35;;
13660;SDS011;6903;49.480;11.102;2023-05-10T15:01:10;1.30;;;1.08;;
13660;SDS011;6903;49.480;11.102;2023-05-10T15:03:36;1.20;;;1.00;;
13660;SDS011;6903;49.480;11.102;2023-05-10T15:06:01;1.35;;;1.20;;
13660;SDS011;6903;49.480;11.102;2023-05-10T15:08:26;1.35;;;1.25;;
13660;SDS011;6903;49.480;11.102;2023-05-10T15:10:52;1.60;;;1.30;;
13660;SDS011;6903;49.480;11.102;2023-05-10T15:13:20;1.92;;;1.60;;
13660;SDS011;6903;49.480;11.102;2023-05-10T15:15:45;1.92;;;1.60;;
13660;SDS011;6903;49.480;11.102;2023-05-10T15:18:11;1.65;;;1.48;;
13660;SDS011;6903;49.480;11.102;2023-05-10T15:20:36;1.10;;;1.00;;
13660;SDS011;6903;49.480;11.102;2023-05-10T15:23:01;0.80;;;0.80;;
13660;SDS011;6903;49.480;11.102;2023-05-10T15:25:27;1.23;;;1.00;;